Time;durP1;ratioP1;P1;durP2;ratioP2;P2;SDS_P1;SDS_P2;PMS_P1;PMS_P2;Temp;Humidity;BMP_temperature;BMP_pressure;BME280_temperature;BME280_humidity;BME280_pressure;Samples;Min_cycle;Max_cycle;Signal;HPM_P1;HPM_P2
2021/12/26 00:02:13;;;;;;;7.60;4.20;;;-8.00;99.90;;;;;;4957984;28;20171;-92
2021/12/26 00:04:47;;;;;;;7.67;3.67;;;-8.00;99.90;;;;;;4957998;28;20215;-89
2021/12/26 00:07:19;;;;;;;7.40;4.07;;;-8.00;99.90;;;;;;4957851;28;20670;-90
2021/12/26 00:09:51;;;;;;;5.63;3.80;;;-7.90;99.90;;;;;;4957870;28;20242;-89
2021/12/26 00:12:22;;;;;;;6.13;3.50;;;-8.00;99.90;;;;;;4957433;28;20220;-91
2021/12/26 00:14:48;;;;;;;7.73;3.30;;;-7.90;99.90;;;;;;4957938;28;20195;-92
2021/12/26 00:17:19;;;;;;;5.33;3.60;;;-8.00;99.90;;;;;;4961794;28;20325;-90
2021/12/26 00:19:55;;;;;;;8.17;4.03;;;-8.00;99.90;;;;;;4961721;28;20282;-90
2021/12/26 00:22:24;;;;;;;6.27;3.60;;;-8.00;99.90;;;;;;4961722;28;20184;-91
2021/12/26 00:25:15;;;;;;;6.80;3.43;;;-8.00;99.90;;;;;;4961698;28;20663;-90
2021/12/26 00:27:43;;;;;;;8.57;3.30;;;-8.00;99.90;;;;;;4961497;28;20205;-91
2021/12/26 00:30:26;;;;;;;5.93;3.57;;;-8.00;99.90;;;;;;4944344;29;20205;-91
2021/12/26 00:36:07;;;;;;;7.77;4.10;;;-7.90;99.90;;;;;;4959463;29;20188;-90
2021/12/26 00:38:33;;;;;;;7.23;3.60;;;-8.00;99.90;;;;;;4942247;29;20177;-90
2021/12/26 00:41:01;;;;;;;6.10;3.53;;;-8.00;99.90;;;;;;4942363;29;20228;-91
2021/12/26 00:43:29;;;;;;;5.27;3.40;;;-8.00;99.90;;;;;;4942025;29;20729;-90
2021/12/26 00:46:04;;;;;;;4.70;3.47;;;-8.10;99.90;;;;;;4942030;29;20188;-90
2021/12/26 00:48:38;;;;;;;6.67;3.87;;;-8.10;99.90;;;;;;4941981;29;20181;-90
2021/12/26 00:51:35;;;;;;;5.47;3.43;;;-8.00;99.90;;;;;;4941852;29;20191;-90
2021/12/26 00:54:12;;;;;;;8.43;4.40;;;-8.10;99.90;;;;;;4938900;29;20186;-90
2021/12/26 00:56:39;;;;;;;7.30;3.70;;;-8.00;99.90;;;;;;4938661;29;20311;-91
2021/12/26 00:59:16;;;;;;;5.83;3.50;;;-8.00;99.90;;;;;;4938755;29;20216;-91
2021/12/26 01:01:55;;;;;;;7.20;3.73;;;-8.00;99.90;;;;;;4938751;29;20210;-91
2021/12/26 01:04:29;;;;;;;7.03;3.30;;;-8.00;99.90;;;;;;4938910;29;20264;-89
2021/12/26 01:06:58;;;;;;;8.93;4.00;;;-8.00;99.90;;;;;;4954741;29;20241;-90
2021/12/26 01:09:45;;;;;;;5.40;3.23;;;-8.00;99.90;;;;;;4938648;29;20252;-90
2021/12/26 01:12:15;;;;;;;8.43;3.87;;;-8.00;99.90;;;;;;4938233;29;20616;-91
2021/12/26 01:14:49;;;;;;;8.30;4.30;;;-8.00;99.90;;;;;;4938574;29;20182;-92
2021/12/26 01:17:26;;;;;;;6.80;3.40;;;-8.10;99.90;;;;;;4955066;28;20216;-91
2021/12/26 01:19:54;;;;;;;8.13;3.87;;;-8.10;99.90;;;;;;4960216;28;20227;-91
2021/12/26 01:22:22;;;;;;;5.43;3.60;;;-8.10;99.90;;;;;;4960607;28;20237;-91
2021/12/26 01:24:56;;;;;;;6.97;3.40;;;-8.20;99.90;;;;;;4960368;28;20180;-92
2021/12/26 01:27:28;;;;;;;5.90;3.90;;;-8.10;99.90;;;;;;4960079;28;20260;-90
2021/12/26 01:29:56;;;;;;;10.93;4.47;;;-8.10;99.90;;;;;;4960569;28;20186;-91
2021/12/26 01:32:23;;;;;;;10.83;3.43;;;-8.20;99.90;;;;;;4960507;28;20199;-91
2021/12/26 01:34:53;;;;;;;7.23;4.17;;;-8.20;99.90;;;;;;4960634;28;20266;-91
2021/12/26 01:37:19;;;;;;;8.97;3.90;;;-8.20;99.90;;;;;;4948028;29;20693;-90
2021/12/26 01:39:55;;;;;;;5.63;3.70;;;-8.20;99.90;;;;;;4941960;28;20216;-91
2021/12/26 01:42:34;;;;;;;6.47;3.70;;;-8.20;99.90;;;;;;4960325;28;20205;-89
2021/12/26 01:45:02;;;;;;;7.60;4.10;;;-8.20;99.90;;;;;;4960039;28;20187;-91
2021/12/26 01:47:35;;;;;;;6.33;3.60;;;-8.20;99.90;;;;;;4958461;28;20739;-90
2021/12/26 01:50:20;;;;;;;6.37;4.07;;;-8.10;99.90;;;;;;4941130;29;20227;-91
2021/12/26 01:53:12;;;;;;;6.03;3.67;;;-8.10;99.90;;;;;;4950697;28;20199;-92
2021/12/26 01:55:47;;;;;;;6.83;3.80;;;-8.10;99.90;;;;;;4960241;28;20191;-91
2021/12/26 01:58:56;;;;;;;7.83;4.07;;;-8.10;99.90;;;;;;4960080;28;20705;-91
2021/12/26 02:01:26;;;;;;;6.90;3.70;;;-8.10;99.90;;;;;;4959321;28;20203;-91
2021/12/26 02:04:05;;;;;;;7.43;4.47;;;-8.10;99.90;;;;;;4940812;29;20232;-91
2021/12/26 02:06:45;;;;;;;8.50;4.00;;;-8.10;99.90;;;;;;4940551;29;20216;-90
2021/12/26 02:09:17;;;;;;;8.60;4.40;;;-8.10;99.90;;;;;;4940899;29;20177;-92
2021/12/26 02:11:47;;;;;;;9.30;4.20;;;-8.10;99.90;;;;;;4940216;29;20246;-90
2021/12/26 02:14:15;;;;;;;8.20;3.57;;;-8.20;99.90;;;;;;4940398;29;20195;-91
2021/12/26 02:16:44;;;;;;;6.97;4.23;;;-8.20;99.90;;;;;;4940395;29;20616;-91
2021/12/26 02:19:21;;;;;;;6.57;3.63;;;-8.20;99.90;;;;;;4940281;29;20188;-91
2021/12/26 02:25:26;;;;;;;5.63;3.97;;;-8.20;99.90;;;;;;4958080;29;20223;-91
2021/12/26 02:27:32;;;;;;;7.57;4.10;;;-8.20;99.90;;;;;;4951560;29;20579;-91
2021/12/26 02:33:03;;;;;;;8.53;4.13;;;-8.10;99.90;;;;;;4958197;29;20513;-91
2021/12/26 02:35:30;;;;;;;7.63;3.90;;;-8.20;99.90;;;;;;4940040;29;20181;-90
2021/12/26 02:38:00;;;;;;;7.97;3.87;;;-8.30;99.90;;;;;;4939215;29;20211;-90
2021/12/26 02:40:26;;;;;;;5.67;3.80;;;-8.30;99.90;;;;;;4940174;29;20216;-91
2021/12/26 02:43:15;;;;;;;4.90;3.13;;;-8.30;99.90;;;;;;4940009;29;20179;-90
2021/12/26 02:45:42;;;;;;;6.67;3.20;;;-8.30;99.90;;;;;;4940222;29;20192;-92
2021/12/26 02:48:31;;;;;;;6.00;3.60;;;-8.30;99.90;;;;;;4940016;29;20212;-90
2021/12/26 02:51:05;;;;;;;6.87;4.20;;;-8.40;99.90;;;;;;4939825;29;20185;-91
2021/12/26 02:53:56;;;;;;;6.03;3.60;;;-8.30;99.90;;;;;;4940115;29;20547;-92
2021/12/26 02:56:23;;;;;;;6.33;3.93;;;-8.40;99.90;;;;;;4939986;29;20216;-91
2021/12/26 02:59:07;;;;;;;7.10;4.07;;;-8.40;99.90;;;;;;4939500;29;20680;-91
2021/12/26 03:02:05;;;;;;;6.10;3.63;;;-8.50;99.90;;;;;;4939775;29;20215;-90
2021/12/26 03:04:32;;;;;;;6.03;3.50;;;-8.40;99.90;;;;;;4939800;29;20214;-90
2021/12/26 03:07:03;;;;;;;6.87;3.70;;;-8.50;99.90;;;;;;4939481;29;20291;-92
2021/12/26 03:09:59;;;;;;;5.23;3.43;;;-8.50;99.90;;;;;;4939388;29;20255;-91
2021/12/26 03:12:25;;;;;;;8.77;3.50;;;-8.50;99.90;;;;;;4938691;29;20238;-90
2021/12/26 03:15:05;;;;;;;6.87;3.73;;;-8.50;99.90;;;;;;4939738;29;20191;-91
2021/12/26 03:18:04;;;;;;;6.60;4.00;;;-8.60;99.90;;;;;;4939588;29;20210;-90
2021/12/26 03:20:34;;;;;;;7.47;3.73;;;-8.60;99.90;;;;;;4939313;29;20204;-91
2021/12/26 03:23:27;;;;;;;6.20;3.73;;;-8.60;99.90;;;;;;4939407;29;20186;-90
2021/12/26 03:26:02;;;;;;;8.80;3.80;;;-8.70;99.90;;;;;;4939136;29;20185;-92
2021/12/26 03:28:45;;;;;;;7.00;4.10;;;-8.70;99.90;;;;;;4939257;29;20184;-91
2021/12/26 03:31:16;;;;;;;5.70;3.67;;;-8.70;99.90;;;;;;4939306;29;20189;-92
2021/12/26 03:33:48;;;;;;;7.13;4.17;;;-8.70;99.90;;;;;;4948689;28;20685;-91
2021/12/26 03:36:58;;;;;;;9.10;3.63;;;-8.70;99.90;;;;;;4958237;28;20697;-92
2021/12/26 03:39:35;;;;;;;4.03;2.97;;;-8.70;99.90;;;;;;4958675;28;20267;-92
2021/12/26 03:42:11;;;;;;;9.27;3.80;;;-8.70;99.90;;;;;;4958549;28;20215;-90
2021/12/26 03:44:44;;;;;;;5.83;3.70;;;-8.80;99.90;;;;;;4958534;28;20173;-90
2021/12/26 03:47:17;;;;;;;7.87;4.10;;;-8.80;99.90;;;;;;4958306;28;20269;-91
2021/12/26 03:50:12;;;;;;;7.70;3.43;;;-8.80;99.90;;;;;;4958528;28;20177;-90
2021/12/26 03:55:41;;;;;;;7.80;3.63;;;-8.80;99.90;;;;;;5156255;23;20692;-93
2021/12/26 03:58:18;;;;;;;5.77;3.77;;;-8.80;99.90;;;;;;4919014;29;20620;-93
2021/12/26 04:00:49;;;;;;;7.67;4.07;;;-8.90;99.90;;;;;;4919793;29;20229;-92
2021/12/26 04:03:20;;;;;;;11.10;4.30;;;-8.90;99.90;;;;;;4919988;29;20636;-91
2021/12/26 04:05:48;;;;;;;6.63;3.97;;;-8.90;99.90;;;;;;4920141;29;20241;-93
2021/12/26 04:08:28;;;;;;;9.73;3.73;;;-8.90;99.90;;;;;;4920105;29;20210;-91
2021/12/26 04:11:14;;;;;;;7.70;3.50;;;-8.80;99.90;;;;;;4920087;29;20190;-92
2021/12/26 04:13:40;;;;;;;10.30;4.13;;;-8.80;99.90;;;;;;4919834;29;20186;-92
2021/12/26 04:16:08;;;;;;;8.13;3.70;;;-8.80;99.90;;;;;;4920048;29;20182;-94
2021/12/26 04:18:42;;;;;;;7.30;3.93;;;-8.80;99.90;;;;;;4920102;29;20191;-92
2021/12/26 04:21:11;;;;;;;8.40;3.90;;;-8.80;99.90;;;;;;4920289;29;20210;-94
2021/12/26 04:23:44;;;;;;;8.23;3.77;;;-8.90;99.90;;;;;;4920109;29;20188;-94
2021/12/26 04:26:10;;;;;;;7.27;3.97;;;-8.90;99.90;;;;;;4919900;29;20190;-94
2021/12/26 04:28:37;;;;;;;8.83;3.93;;;-8.90;99.90;;;;;;4920257;29;20184;-94
2021/12/26 04:31:15;;;;;;;8.50;3.73;;;-8.90;99.90;;;;;;4935780;29;20281;-95
2021/12/26 04:33:42;;;;;;;7.93;3.80;;;-8.90;99.90;;;;;;4920044;29;20197;-93
2021/12/26 04:36:16;;;;;;;9.80;4.70;;;-8.90;99.90;;;;;;4920491;29;20186;-92
2021/12/26 04:38:50;;;;;;;9.97;4.63;;;-8.90;99.90;;;;;;4919937;29;20193;-90
2021/12/26 04:41:18;;;;;;;7.70;4.27;;;-8.90;99.90;;;;;;4919704;29;20228;-93
2021/12/26 04:43:46;;;;;;;8.67;4.10;;;-8.90;99.90;;;;;;4919930;29;20193;-95
2021/12/26 04:46:42;;;;;;;7.97;4.50;;;-9.00;99.90;;;;;;4919890;29;20208;-92
2021/12/26 04:49:09;;;;;;;7.63;3.87;;;-9.00;99.90;;;;;;4919555;29;20190;-94
2021/12/26 04:54:47;;;;;;;7.70;4.30;;;-9.00;99.90;;;;;;4936524;29;20239;-91
2021/12/26 04:57:16;;;;;;;5.97;3.97;;;-9.00;99.90;;;;;;4919554;29;20217;-91
2021/12/26 04:59:49;;;;;;;8.47;4.07;;;-9.00;99.90;;;;;;4919463;29;20183;-93
2021/12/26 05:02:36;;;;;;;7.27;3.83;;;-9.00;99.90;;;;;;4938386;29;20666;-94
2021/12/26 05:05:18;;;;;;;8.83;4.40;;;-9.00;99.90;;;;;;4922882;29;20201;-93
2021/12/26 05:07:47;;;;;;;7.77;4.13;;;-9.00;99.90;;;;;;4922936;29;20217;-92
2021/12/26 05:10:27;;;;;;;9.60;4.63;;;-9.00;99.90;;;;;;4922794;29;20183;-92
2021/12/26 05:13:01;;;;;;;7.73;4.20;;;-9.00;99.90;;;;;;4922821;29;20236;-94
2021/12/26 05:15:30;;;;;;;7.93;4.17;;;-9.10;99.90;;;;;;4922653;29;20250;-92
2021/12/26 05:18:05;;;;;;;7.87;4.33;;;-9.10;99.90;;;;;;4922700;29;20758;-94
2021/12/26 05:20:32;;;;;;;9.57;4.43;;;-9.10;99.90;;;;;;4939764;29;20717;-95
2021/12/26 05:23:12;;;;;;;8.57;4.50;;;-9.10;99.90;;;;;;4922759;29;20177;-92
2021/12/26 05:25:39;;;;;;;7.33;4.10;;;-9.20;99.90;;;;;;4922511;29;20201;-93
2021/12/26 05:28:05;;;;;;;6.67;4.17;;;-9.10;99.90;;;;;;4938394;29;20321;-93
2021/12/26 05:30:36;;;;;;;8.93;4.70;;;-9.20;99.90;;;;;;4922514;29;20652;-91
2021/12/26 05:33:27;;;;;;;11.27;4.50;;;-9.10;99.90;;;;;;4938407;29;20213;-93
2021/12/26 05:36:05;;;;;;;7.13;4.40;;;-9.20;99.90;;;;;;4922322;29;20189;-92
2021/12/26 05:38:39;;;;;;;6.97;4.40;;;-9.20;99.90;;;;;;4938581;29;20550;-92
2021/12/26 05:41:11;;;;;;;7.30;4.23;;;-9.20;99.90;;;;;;4922333;29;20213;-92
2021/12/26 05:43:46;;;;;;;10.90;5.00;;;-9.20;99.90;;;;;;4922262;29;20174;-92
2021/12/26 05:46:20;;;;;;;8.00;4.20;;;-9.10;99.90;;;;;;4922622;29;20349;-91
2021/12/26 05:48:50;;;;;;;9.67;4.63;;;-9.10;99.90;;;;;;4922599;29;20194;-93
2021/12/26 05:51:16;;;;;;;8.80;4.27;;;-9.10;99.90;;;;;;4922210;29;20192;-92
2021/12/26 05:53:43;;;;;;;14.47;4.17;;;-9.10;99.90;;;;;;4937955;29;20182;-92
2021/12/26 05:56:11;;;;;;;8.47;4.50;;;-9.10;99.90;;;;;;4903503;29;20198;-93
2021/12/26 05:58:37;;;;;;;7.43;3.87;;;-9.10;99.90;;;;;;4903501;29;20179;-93
2021/12/26 06:01:03;;;;;;;6.53;4.13;;;-9.00;99.90;;;;;;4904057;29;20217;-89
2021/12/26 06:03:32;;;;;;;6.57;4.17;;;-9.00;99.90;;;;;;4904015;29;20171;-94
2021/12/26 06:06:09;;;;;;;9.30;4.67;;;-9.00;99.90;;;;;;4902856;29;20305;-90
2021/12/26 06:08:35;;;;;;;11.73;4.87;;;-9.10;99.90;;;;;;4919514;29;20175;-93
2021/12/26 06:11:01;;;;;;;10.23;4.60;;;-9.10;99.90;;;;;;4919411;29;20194;-92
2021/12/26 06:13:33;;;;;;;10.87;5.33;;;-9.10;99.90;;;;;;4917667;29;20187;-94
2021/12/26 06:16:04;;;;;;;7.73;4.43;;;-9.00;99.90;;;;;;4919091;29;20187;-93
2021/12/26 06:18:32;;;;;;;8.00;4.47;;;-9.00;99.90;;;;;;4919710;29;20194;-93
2021/12/26 06:21:02;;;;;;;11.80;4.27;;;-9.00;99.90;;;;;;4919382;29;20645;-94
2021/12/26 06:23:29;;;;;;;9.30;4.70;;;-9.00;99.90;;;;;;4919455;29;20175;-94
2021/12/26 06:25:56;;;;;;;10.00;5.03;;;-9.00;99.90;;;;;;4919355;29;20179;-93
2021/12/26 06:28:22;;;;;;;7.47;4.40;;;-9.10;99.90;;;;;;4919610;29;20187;-91
2021/12/26 06:30:48;;;;;;;7.60;4.30;;;-9.10;99.90;;;;;;4919532;29;20203;-93
2021/12/26 06:33:20;;;;;;;10.70;4.50;;;-9.10;99.90;;;;;;4919064;29;20176;-92
2021/12/26 06:35:51;;;;;;;9.23;4.87;;;-9.10;99.90;;;;;;4919331;29;20190;-93
2021/12/26 06:38:20;;;;;;;8.43;4.47;;;-9.10;99.90;;;;;;4919353;29;20230;-92
2021/12/26 06:40:45;;;;;;;7.70;4.83;;;-9.00;99.90;;;;;;4934901;29;20728;-93
2021/12/26 06:43:12;;;;;;;8.70;4.67;;;-9.10;99.90;;;;;;4919032;29;20173;-93
2021/12/26 06:45:43;;;;;;;8.30;4.23;;;-9.00;99.90;;;;;;4919172;29;20179;-91
2021/12/26 06:48:12;;;;;;;9.23;5.13;;;-9.10;99.90;;;;;;4918663;29;20234;-90
2021/12/26 06:50:39;;;;;;;7.43;3.97;;;-9.10;99.90;;;;;;4919345;29;20175;-92
2021/12/26 06:53:05;;;;;;;10.20;4.53;;;-9.10;99.90;;;;;;4919888;29;20183;-92
2021/12/26 06:55:35;;;;;;;10.63;5.07;;;-9.10;99.90;;;;;;4920274;29;20302;-93
2021/12/26 06:58:03;;;;;;;10.57;6.20;;;-9.10;99.90;;;;;;4905260;29;20677;-91
2021/12/26 07:00:29;;;;;;;8.97;5.27;;;-9.10;99.90;;;;;;4904825;29;20218;-93
2021/12/26 07:02:57;;;;;;;7.30;4.63;;;-9.10;99.90;;;;;;4905039;29;20290;-93
2021/12/26 07:05:40;;;;;;;8.00;4.80;;;-9.20;99.90;;;;;;4904673;29;20270;-90
2021/12/26 07:08:08;;;;;;;12.13;4.97;;;-9.10;99.90;;;;;;4902092;29;20203;-92
2021/12/26 07:11:01;;;;;;;15.20;5.30;;;-9.10;99.90;;;;;;4901840;29;20214;-91
2021/12/26 07:13:35;;;;;;;10.63;6.77;;;-9.10;99.90;;;;;;4917537;29;20194;-91
2021/12/26 07:16:10;;;;;;;10.53;6.60;;;-9.20;99.90;;;;;;4901949;29;20183;-92
2021/12/26 07:18:45;;;;;;;10.93;5.87;;;-9.20;99.90;;;;;;4901950;29;20186;-91
2021/12/26 07:21:14;;;;;;;10.53;5.20;;;-9.20;99.90;;;;;;4901803;29;20225;-91
2021/12/26 07:23:40;;;;;;;10.70;5.13;;;-9.20;99.90;;;;;;4901714;29;20320;-91
2021/12/26 07:26:07;;;;;;;9.77;5.13;;;-9.20;99.90;;;;;;4936646;29;20221;-92
2021/12/26 07:28:49;;;;;;;10.00;5.30;;;-9.20;99.90;;;;;;4920618;29;20277;-90
2021/12/26 07:31:16;;;;;;;9.73;4.60;;;-9.30;99.90;;;;;;4920260;29;20664;-92
2021/12/26 07:33:44;;;;;;;9.67;4.73;;;-9.40;99.90;;;;;;4936202;29;20236;-95
2021/12/26 07:36:42;;;;;;;8.67;4.60;;;-9.40;99.90;;;;;;4935411;29;20195;-91
2021/12/26 07:39:08;;;;;;;10.73;4.80;;;-9.40;99.90;;;;;;4922584;29;20188;-91
2021/12/26 07:41:48;;;;;;;10.00;4.43;;;-9.30;99.90;;;;;;4939410;29;20289;-91
2021/12/26 07:44:18;;;;;;;8.67;4.40;;;-9.40;99.90;;;;;;4921411;29;20182;-93
2021/12/26 07:46:45;;;;;;;9.33;4.70;;;-9.30;99.90;;;;;;4921073;29;20213;-94
2021/12/26 07:49:13;;;;;;;12.27;4.97;;;-9.30;99.90;;;;;;4920384;29;20549;-92
2021/12/26 07:51:48;;;;;;;8.60;4.60;;;-9.30;99.90;;;;;;4937265;29;20165;-92
2021/12/26 07:54:15;;;;;;;8.40;3.97;;;-9.30;99.90;;;;;;4919904;29;20225;-93
2021/12/26 07:56:49;;;;;;;9.23;4.70;;;-9.30;99.90;;;;;;4935861;29;20213;-94
2021/12/26 07:59:25;;;;;;;13.57;5.00;;;-9.30;99.90;;;;;;4936696;29;20176;-92
2021/12/26 08:01:54;;;;;;;8.47;4.37;;;-9.30;99.90;;;;;;4919847;29;20209;-94
2021/12/26 08:04:21;;;;;;;8.23;4.57;;;-9.20;99.90;;;;;;4919871;29;20197;-92
2021/12/26 08:06:57;;;;;;;9.27;4.53;;;-9.20;99.90;;;;;;4919791;29;20679;-94
2021/12/26 08:09:40;;;;;;;7.83;3.90;;;-9.20;99.90;;;;;;4935992;29;20268;-92
2021/12/26 08:12:06;;;;;;;11.57;5.10;;;-9.20;99.90;;;;;;4919882;29;20210;-91
2021/12/26 08:14:49;;;;;;;12.80;5.87;;;-9.20;99.90;;;;;;4936990;29;20182;-93
2021/12/26 08:17:23;;;;;;;8.90;4.73;;;-9.20;99.90;;;;;;4920849;29;20296;-92
2021/12/26 08:19:51;;;;;;;9.20;4.53;;;-9.20;99.90;;;;;;4937376;29;20174;-92
2021/12/26 08:22:17;;;;;;;11.80;6.73;;;-9.10;99.90;;;;;;4921624;29;20187;-93
2021/12/26 08:24:47;;;;;;;9.40;4.80;;;-9.10;99.90;;;;;;4930404;29;20246;-94
2021/12/26 08:27:15;;;;;;;10.17;5.07;;;-9.10;99.90;;;;;;4901922;29;20212;-92
2021/12/26 08:29:41;;;;;;;9.57;5.53;;;-9.00;99.90;;;;;;4902147;29;20213;-92
2021/12/26 08:32:43;;;;;;;12.03;5.13;;;-9.00;99.90;;;;;;4902311;29;20213;-93
2021/12/26 08:35:19;;;;;;;12.03;5.50;;;-8.90;99.90;;;;;;4901139;29;20174;-92
2021/12/26 08:37:46;;;;;;;13.87;6.00;;;-8.80;99.90;;;;;;4919987;29;20238;-91
2021/12/26 08:40:15;;;;;;;11.60;5.37;;;-8.80;99.90;;;;;;4905275;29;20225;-92
2021/12/26 08:42:45;;;;;;;11.57;5.77;;;-8.80;99.90;;;;;;4906469;29;20191;-92
2021/12/26 08:45:26;;;;;;;11.73;6.30;;;-8.70;99.90;;;;;;4905760;29;20292;-92
2021/12/26 08:48:00;;;;;;;13.70;6.73;;;-8.70;99.90;;;;;;4905725;29;20214;-92
2021/12/26 08:50:28;;;;;;;13.97;6.80;;;-8.60;99.90;;;;;;4923170;29;20177;-91
2021/12/26 08:53:00;;;;;;;10.43;5.87;;;-8.60;99.90;;;;;;4907450;29;20180;-89
2021/12/26 08:55:26;;;;;;;13.17;6.50;;;-8.50;99.90;;;;;;4905767;29;20258;-92
2021/12/26 08:57:54;;;;;;;12.70;6.33;;;-8.50;99.90;;;;;;4907405;29;20216;-91
2021/12/26 09:00:25;;;;;;;12.23;6.43;;;-8.40;99.90;;;;;;4922806;29;20221;-89
2021/12/26 09:02:55;;;;;;;16.23;7.90;;;-8.40;99.90;;;;;;4940920;29;20182;-91
2021/12/26 09:05:21;;;;;;;14.87;7.20;;;-8.30;99.90;;;;;;4943104;29;20180;-91
2021/12/26 09:07:47;;;;;;;18.53;7.57;;;-8.20;99.90;;;;;;4926234;29;20204;-90
2021/12/26 09:10:15;;;;;;;12.40;6.37;;;-8.10;99.90;;;;;;4925741;29;20549;-93
2021/12/26 09:12:42;;;;;;;19.47;7.60;;;-8.10;99.90;;;;;;4923068;29;20191;-91
2021/12/26 09:15:11;;;;;;;16.73;7.07;;;-8.10;99.90;;;;;;4922782;29;20195;-92
2021/12/26 09:17:37;;;;;;;13.73;7.10;;;-8.00;99.90;;;;;;4922839;29;20207;-93
2021/12/26 09:20:06;;;;;;;11.67;6.53;;;-7.90;99.90;;;;;;4923870;29;20213;-91
2021/12/26 09:22:50;;;;;;;11.67;7.20;;;-7.90;99.90;;;;;;4924290;29;20600;-91
2021/12/26 09:25:20;;;;;;;14.13;7.30;;;-7.90;99.90;;;;;;4924022;29;20198;-93
2021/12/26 09:27:55;;;;;;;16.00;7.10;;;-7.90;99.90;;;;;;4922499;29;20202;-93
2021/12/26 09:30:22;;;;;;;14.57;7.50;;;-7.80;99.90;;;;;;4923154;29;20188;-93
2021/12/26 09:32:50;;;;;;;12.90;7.43;;;-7.80;99.90;;;;;;4922797;29;20563;-93
2021/12/26 09:35:19;;;;;;;13.17;6.93;;;-7.70;99.90;;;;;;4922815;29;20186;-92
2021/12/26 09:38:19;;;;;;;17.77;7.30;;;-7.70;99.90;;;;;;4922685;29;20219;-92
2021/12/26 09:40:56;;;;;;;14.23;6.13;;;-7.60;99.90;;;;;;4923367;29;20239;-88
2021/12/26 09:43:25;;;;;;;15.17;8.13;;;-7.60;99.90;;;;;;4923244;29;20588;-93
2021/12/26 09:45:53;;;;;;;17.47;7.67;;;-7.50;99.90;;;;;;4923438;29;20239;-92
2021/12/26 09:48:21;;;;;;;14.47;7.83;;;-7.50;99.90;;;;;;4924163;29;20184;-94
2021/12/26 09:50:48;;;;;;;25.57;11.63;;;-7.40;99.90;;;;;;4923296;29;20570;-91
2021/12/26 09:53:17;;;;;;;17.83;7.57;;;-7.40;99.90;;;;;;4926075;29;20659;-91
2021/12/26 09:55:45;;;;;;;20.27;10.43;;;-7.30;99.90;;;;;;4923874;29;20233;-91
2021/12/26 09:58:18;;;;;;;17.17;7.83;;;-7.20;99.90;;;;;;4922175;29;20217;-90
2021/12/26 10:00:45;;;;;;;21.77;9.57;;;-7.20;99.90;;;;;;4922177;29;20301;-90
2021/12/26 10:03:23;;;;;;;13.87;7.57;;;-7.10;99.90;;;;;;4922200;29;20184;-92
2021/12/26 10:06:20;;;;;;;14.77;7.97;;;-7.00;99.90;;;;;;4938072;29;20178;-93
2021/12/26 10:09:05;;;;;;;15.67;8.70;;;-6.90;99.90;;;;;;4937799;29;20181;-91
2021/12/26 10:12:00;;;;;;;17.40;8.33;;;-6.90;99.90;;;;;;4921230;29;20302;-91
2021/12/26 10:14:33;;;;;;;18.63;8.70;;;-6.80;99.90;;;;;;4937460;29;20192;-91
2021/12/26 10:17:07;;;;;;;18.07;7.73;;;-6.70;99.90;;;;;;4920607;29;20214;-92
2021/12/26 10:19:39;;;;;;;15.17;7.90;;;-6.70;99.90;;;;;;4921816;29;20181;-91
2021/12/26 10:22:17;;;;;;;15.10;8.23;;;-6.60;99.90;;;;;;4905438;29;20225;-91
2021/12/26 10:24:49;;;;;;;16.27;8.33;;;-6.60;99.90;;;;;;4918959;29;20186;-92
2021/12/26 10:27:33;;;;;;;14.57;7.33;;;-6.50;99.90;;;;;;4927402;29;20206;-90
2021/12/26 10:30:07;;;;;;;14.97;7.67;;;-6.40;99.90;;;;;;4917998;29;20241;-91
2021/12/26 10:33:05;;;;;;;14.03;7.53;;;-6.40;99.90;;;;;;4902585;29;20198;-94
2021/12/26 10:35:33;;;;;;;11.00;6.43;;;-6.30;99.90;;;;;;4902951;29;20205;-93
2021/12/26 10:38:15;;;;;;;13.73;6.97;;;-6.30;99.90;;;;;;4903130;29;20672;-92
2021/12/26 10:40:51;;;;;;;15.73;6.90;;;-6.20;99.90;;;;;;4916271;29;20675;-91
2021/12/26 10:43:43;;;;;;;12.53;6.73;;;-6.30;99.90;;;;;;4937426;29;20186;-93
2021/12/26 10:46:28;;;;;;;15.80;7.90;;;-6.20;99.90;;;;;;4921607;29;20649;-93
2021/12/26 10:48:54;;;;;;;10.30;6.47;;;-6.10;99.90;;;;;;4921474;29;20278;-92
2021/12/26 10:51:38;;;;;;;15.87;7.13;;;-6.10;99.90;;;;;;4922580;29;20228;-92
2021/12/26 10:54:15;;;;;;;17.73;7.33;;;-6.00;99.90;;;;;;4921454;29;20189;-91
2021/12/26 11:03:42;;;;;;;13.47;7.13;;;-5.90;99.90;;;;;;4918856;29;20213;-92
2021/12/26 11:06:12;;;;;;;13.57;8.17;;;-5.90;99.90;;;;;;4897561;29;20182;-91
2021/12/26 11:08:46;;;;;;;22.00;10.77;;;-5.80;99.90;;;;;;4917806;29;20178;-92
2021/12/26 11:11:16;;;;;;;15.63;7.67;;;-5.70;99.90;;;;;;4901790;29;20236;-91
2021/12/26 11:13:43;;;;;;;14.87;8.10;;;-5.70;99.90;;;;;;4917650;29;20184;-92
2021/12/26 11:16:09;;;;;;;17.73;7.87;;;-5.60;99.90;;;;;;4917396;29;20191;-92
2021/12/26 11:18:36;;;;;;;15.40;7.37;;;-5.60;99.90;;;;;;4901818;29;20197;-93
2021/12/26 11:21:13;;;;;;;18.10;7.63;;;-5.50;99.90;;;;;;4901613;29;20206;-94
2021/12/26 11:23:44;;;;;;;15.97;7.20;;;-5.50;99.90;;;;;;4918722;29;20166;-94
2021/12/26 11:26:15;;;;;;;12.47;6.50;;;-5.50;99.90;;;;;;4903076;29;20206;-94
2021/12/26 11:28:46;;;;;;;12.77;6.93;;;-5.40;99.90;;;;;;4902497;29;20186;-92
2021/12/26 11:31:22;;;;;;;12.37;6.97;;;-5.40;99.90;;;;;;4919178;29;20203;-93
2021/12/26 11:34:29;;;;;;;12.40;7.10;;;-5.40;99.90;;;;;;4920786;29;20184;-93
2021/12/26 11:36:56;;;;;;;10.30;6.23;;;-5.30;99.90;;;;;;4920810;29;20301;-91
2021/12/26 11:39:31;;;;;;;11.40;6.63;;;-5.30;99.90;;;;;;4920795;29;20182;-90
2021/12/26 11:42:38;;;;;;;16.70;6.20;;;-5.20;99.90;;;;;;4936736;29;20211;-93
2021/12/26 11:45:37;;;;;;;12.20;6.53;;;-5.10;99.90;;;;;;4920272;29;20184;-92
2021/12/26 11:48:25;;;;;;;14.70;6.67;;;-5.10;99.90;;;;;;4936684;29;20217;-92
2021/12/26 11:51:43;;;;;;;11.40;5.90;;;-5.00;99.90;;;;;;4936926;29;20190;-92
2021/12/26 11:54:31;;;;;;;13.83;6.37;;;-4.90;99.90;;;;;;4936555;29;20187;-93
2021/12/26 11:57:09;;;;;;;14.67;6.73;;;-4.90;99.90;;;;;;4936113;29;20218;-92
2021/12/26 12:00:18;;;;;;;16.27;7.00;;;-4.80;99.90;;;;;;4920229;29;20198;-91
2021/12/26 12:02:50;;;;;;;12.03;6.43;;;-4.70;99.90;;;;;;4935957;29;20664;-92
2021/12/26 12:05:54;;;;;;;11.37;6.17;;;-4.60;99.90;;;;;;4920162;29;20198;-94
2021/12/26 12:08:35;;;;;;;12.50;6.40;;;-4.60;99.90;;;;;;4919900;29;20185;-92
2021/12/26 12:11:10;;;;;;;11.17;5.80;;;-4.50;99.90;;;;;;4921684;29;20186;-93
2021/12/26 12:13:39;;;;;;;9.10;5.53;;;-4.50;99.90;;;;;;4939990;29;20273;-92
2021/12/26 12:16:23;;;;;;;12.57;6.03;;;-4.50;99.90;;;;;;4923415;29;20618;-91
2021/12/26 12:18:50;;;;;;;11.00;5.80;;;-4.40;99.90;;;;;;4923694;29;20645;-92
2021/12/26 12:21:47;;;;;;;11.63;5.63;;;-4.40;99.90;;;;;;4938867;29;20793;-94
2021/12/26 12:24:23;;;;;;;12.47;6.07;;;-4.40;99.90;;;;;;4939551;29;20185;-93
2021/12/26 12:27:08;;;;;;;13.30;6.07;;;-4.30;99.90;;;;;;4923332;29;20266;-91
2021/12/26 12:29:48;;;;;;;11.97;6.87;;;-4.30;99.90;;;;;;4923478;29;20199;-91
2021/12/26 12:32:23;;;;;;;11.37;6.50;;;-4.20;99.90;;;;;;4923091;29;20192;-94
2021/12/26 12:34:55;;;;;;;12.70;6.33;;;-4.20;99.90;;;;;;4939777;29;20666;-92
2021/12/26 12:37:47;;;;;;;16.63;6.10;;;-4.20;99.90;;;;;;4923546;29;20323;-92
2021/12/26 12:40:39;;;;;;;9.23;5.50;;;-4.20;99.90;;;;;;4923626;29;20206;-92
2021/12/26 12:43:20;;;;;;;10.37;5.40;;;-4.10;99.90;;;;;;4923303;29;20181;-92
2021/12/26 12:45:58;;;;;;;10.17;5.93;;;-4.10;99.90;;;;;;4939555;29;20243;-94
2021/12/26 12:48:47;;;;;;;10.10;5.63;;;-4.10;99.90;;;;;;4939469;29;20181;-92
2021/12/26 12:51:14;;;;;;;10.53;5.60;;;-4.10;99.90;;;;;;4939332;29;20548;-91
2021/12/26 12:53:44;;;;;;;9.13;5.47;;;-4.10;99.90;;;;;;4923311;29;20180;-92
2021/12/26 12:56:29;;;;;;;11.73;5.57;;;-4.00;99.90;;;;;;4923230;29;20277;-92
2021/12/26 12:59:16;;;;;;;13.53;6.07;;;-4.00;99.90;;;;;;4923117;29;20187;-94
2021/12/26 13:01:59;;;;;;;10.40;5.93;;;-4.00;99.90;;;;;;4922257;29;20301;-92
2021/12/26 13:04:39;;;;;;;9.87;5.30;;;-4.00;99.90;;;;;;4922911;29;20183;-93
2021/12/26 13:07:30;;;;;;;11.93;5.83;;;-3.90;99.90;;;;;;4939695;29;20235;-92
2021/12/26 13:10:14;;;;;;;9.80;5.87;;;-3.80;99.90;;;;;;4922909;29;20187;-92
2021/12/26 13:12:40;;;;;;;12.07;5.53;;;-3.80;99.90;;;;;;4922990;29;20176;-91
2021/12/26 13:15:28;;;;;;;8.43;5.17;;;-3.80;99.90;;;;;;4922732;29;20616;-92
2021/12/26 13:17:53;;;;;;;12.70;5.97;;;-3.80;99.90;;;;;;4938408;29;20215;-90
2021/12/26 13:20:28;;;;;;;9.83;6.07;;;-3.80;99.90;;;;;;4922464;29;20213;-91
2021/12/26 13:23:04;;;;;;;11.23;5.77;;;-3.80;99.90;;;;;;4922118;29;20203;-92
2021/12/26 13:25:35;;;;;;;10.60;6.37;;;-3.80;99.90;;;;;;4922286;29;20552;-93
2021/12/26 13:28:10;;;;;;;10.77;6.00;;;-3.80;99.90;;;;;;4938262;29;20212;-92
2021/12/26 13:30:50;;;;;;;10.97;5.43;;;-3.80;99.90;;;;;;4922585;29;20188;-92
2021/12/26 13:36:46;;;;;;;9.10;5.63;;;-3.80;99.90;;;;;;4910659;29;20213;-93
2021/12/26 13:39:34;;;;;;;8.93;5.23;;;-3.80;99.90;;;;;;4922784;29;20676;-91
2021/12/26 13:42:00;;;;;;;11.17;6.03;;;-3.80;99.90;;;;;;4923806;29;20208;-93
2021/12/26 13:44:47;;;;;;;10.57;6.00;;;-3.90;99.90;;;;;;4922187;29;20180;-90
2021/12/26 13:47:15;;;;;;;8.43;5.03;;;-3.90;99.90;;;;;;4922121;29;20259;-91
2021/12/26 13:49:41;;;;;;;9.43;5.73;;;-3.90;99.90;;;;;;4922245;29;20188;-92